Terminal Aerodrome Forecast
Issued by NWS Cleveland, OH

Home | Current Version | Previous Version | Text Only | Print | Product List | Glossary Off
Versions: 1 2 3 4 5 6 7 8 9 10 11 12 13 14 15 16 17

000
FTUS41 KCLE 301736
TAFERI
TAF
KERI 301736Z 3018/0118 22010KT P6SM OVC025
     FM010000 22010KT P6SM -SHRA VCTS BKN035CB OVC100
      TEMPO 0100/0102 4SM -TSRA OVC035CB
     FM010200 20005KT P6SM VCSH BKN100
     FM010500 20007KT P6SM OVC050
     FM010900 21007KT P6SM BKN050
     FM011200 25008KT P6SM OVC015=

USA.gov is the U.S. government's official web portal to all federal, state and local government web resources and services.